Domov               UVHVVR             MKGP            O straneh              
ZDRAVSTVENO VARSTVO RASTLIN
  MREŽA AGROMET. POSTAJ
 ► PROGNOSTIČNA OBVESTILA
AGROMETEOROLOŠKI PODATKI -
ARSO
OBVLADOVANJE TVEGANJ ZARADI
NEUGODNIH VREMENSKIH RAZMER
  ► NARAVNE NESREČE
  ► SUŠA/MOČA
  ► NAMAKANJE
  ► ŽLED (gozdarstvo)
KARTOGRAFSKI PRIKAZI
SPLETNE POVEZAVE
PROJEKTI IN PUBLIKACIJE

AGROMETEOROLOŠKA MREŽA: VREMENSKE POSTAJE IN FENOLOŠKA OPAZOVANJA

Pregled podatkov za lokacijo Sremič, meteorološka postaja 49592

Pregled senzorjev na lokaciji

ID Ime Zadnja
vrednost
Datum
zadnje
spremembe
Tip
senzorja
3947 Omočenost lista (U) 1 U 18.7.2018 00:30 A730WET
3948 Padavine (mm) 0 mm 18.7.2018 00:30 Generic 0.2 mm
3945 Relativna vlaga 2 m (% RH) 79,57 % RH 18.7.2018 00:30 Generic 0 - 100 %
3946 Temperatura 2 m (°C) 17,76 °C 18.7.2018 00:30 Generic -40 - +60 °C

Pregled podatkov zadnjih 24 ur

Zap.
št.
Datum in čas Sremič
Omočenost
lista
Padavine Relativna
vlaga
2
m
Temperatura
2
m
1 18.7.2018 01:00
2 18.7.2018 00:30
3 18.7.2018 00:00
4 17.7.2018 23:30 1 0 79,6 17,8
5 17.7.2018 23:00 3 0 83,1 17,7
6 17.7.2018 22:30 1 0 77 18,2
7 17.7.2018 22:00 1 0 75,1 18,4
8 17.7.2018 21:30 1 0 73 18,8
9 17.7.2018 21:00 1 0 75,3 18,8
10 17.7.2018 20:30 1 0 74,5 18,8
11 17.7.2018 20:00 0 0 70,3 19,3
12 17.7.2018 19:30 0 0 69 20,3
13 17.7.2018 19:00 0 0 62,6 22,6
14 17.7.2018 18:30 0 0 60 23,5
15 17.7.2018 18:00 0 0 61,6 23
16 17.7.2018 17:30 0 0 61,9 23,8
17 17.7.2018 17:00 0 0 55,1 25,4
18 17.7.2018 16:30 0 0 54,1 25,1
19 17.7.2018 16:00 0 0 58,2 22,6
20 17.7.2018 15:30 0 0 62,3 21,9
21 17.7.2018 15:00 1 0 62,7 21,7
22 17.7.2018 14:30 10 0,2 65,5 21,6
23 17.7.2018 14:00 1 0 53,9 26
24 17.7.2018 13:30 0 0 54,2 25
25 17.7.2018 13:00 3 0 62,3 23,1
26 17.7.2018 12:30 0 0 52,4 25,6
27 17.7.2018 12:00 0 0 60,5 24,2
28 17.7.2018 11:30 0 0 54,3 27
29 17.7.2018 11:00 0 0 55,1 25,8
30 17.7.2018 10:30 0 0 59,4 26,1
31 17.7.2018 10:00 0 0 61,6 25
32 17.7.2018 09:30 0 0 65,9 23,4
33 17.7.2018 09:00 0 0 65,8 23,1
34 17.7.2018 08:30 0 0 66 22,7
35 17.7.2018 08:00 0 0 70,8 20,3
36 17.7.2018 07:30 0 0 72 19,3
37 17.7.2018 07:00 10 0 76,3 17,7
38 17.7.2018 06:30 10 0 84,9 15,8
39 17.7.2018 06:00 10 0 89,3 15,1
40 17.7.2018 05:30 10 0 95 14,5
41 17.7.2018 05:00 10 0 95,1 14,6
42 17.7.2018 04:30 10 0 97,6 14,4
43 17.7.2018 04:00 10 0 98,5 14,4
44 17.7.2018 03:30 10 0 99,3 14,4
45 17.7.2018 03:00 10 0 99,7 14,4
46 17.7.2018 02:30 10 0 100 14,3
47 17.7.2018 02:00 10 0 99,9 14,5
48 17.7.2018 01:30 10 0 99,7 14,5
© 2011 Ministrstvo za kmetijstvo, gozdarstvo in prehrano. Vse pravice pridržane.